Time;durP1;ratioP1;P1;durP2;ratioP2;P2;SDS_P1;SDS_P2;PMS_P1;PMS_P2;Temp;Humidity;BMP_temperature;BMP_pressure;BME280_temperature;BME280_humidity;BME280_pressure;Samples;Min_cycle;Max_cycle;Signal;HPM_P1;HPM_P2
2023/08/14 00:01:55;;;;;;;;;;;24.70;51.10;;;;;;5094693;28;20388;-56
2023/08/14 00:04:23;;;;;;;;;;;24.70;51.10;;;;;;5094526;28;19928;-56
2023/08/14 00:06:49;;;;;;;;;;;24.70;51.10;;;;;;5094592;28;19924;-56
2023/08/14 00:09:16;;;;;;;;;;;24.70;51.10;;;;;;5093963;28;20439;-56
2023/08/14 00:11:43;;;;;;;;;;;24.70;51.20;;;;;;5094417;28;19969;-57
2023/08/14 00:14:10;;;;;;;;;;;24.70;51.20;;;;;;5094106;28;19924;-56
2023/08/14 00:16:38;;;;;;;;;;;24.70;51.20;;;;;;5094723;28;19924;-56
2023/08/14 00:19:05;;;;;;;;;;;24.70;51.20;;;;;;5094544;28;19924;-56
2023/08/14 00:21:32;;;;;;;;;;;24.60;51.20;;;;;;5093331;28;20281;-56
2023/08/14 00:23:59;;;;;;;;;;;24.60;51.20;;;;;;5094566;28;19928;-56
2023/08/14 00:26:26;;;;;;;;;;;24.60;51.20;;;;;;5094634;28;19931;-56
2023/08/14 00:28:53;;;;;;;;;;;24.60;51.20;;;;;;5094248;28;20442;-56
2023/08/14 00:31:20;;;;;;;;;;;24.60;51.20;;;;;;5094035;28;20019;-56
2023/08/14 00:33:47;;;;;;;;;;;24.60;51.20;;;;;;5094418;28;19928;-56
2023/08/14 00:36:15;;;;;;;;;;;24.60;51.20;;;;;;5094324;28;19946;-56
2023/08/14 00:38:42;;;;;;;;;;;24.60;51.20;;;;;;5094226;28;19924;-57
2023/08/14 00:41:09;;;;;;;;;;;24.60;51.20;;;;;;5093970;28;20431;-59
2023/08/14 00:43:36;;;;;;;;;;;24.60;51.20;;;;;;5094233;28;19924;-57
2023/08/14 00:46:03;;;;;;;;;;;24.60;51.30;;;;;;5093916;28;19970;-57
2023/08/14 00:48:30;;;;;;;;;;;24.60;51.20;;;;;;5093851;28;19925;-57
2023/08/14 00:50:58;;;;;;;;;;;24.60;51.30;;;;;;5093691;28;20346;-56
2023/08/14 00:53:27;;;;;;;;;;;24.60;51.30;;;;;;5093714;28;19924;-57
2023/08/14 00:55:54;;;;;;;;;;;24.60;51.30;;;;;;5093882;28;20373;-56
2023/08/14 00:58:22;;;;;;;;;;;24.60;51.30;;;;;;5093740;28;19954;-55
2023/08/14 01:00:49;;;;;;;;;;;24.60;51.20;;;;;;5093863;28;19928;-56
2023/08/14 01:03:17;;;;;;;;;;;24.60;51.30;;;;;;5093717;28;20015;-57
2023/08/14 01:05:45;;;;;;;;;;;24.60;51.20;;;;;;5093472;28;19924;-56
2023/08/14 01:08:12;;;;;;;;;;;24.60;51.20;;;;;;5093417;28;19931;-58
2023/08/14 01:10:46;;;;;;;;;;;24.60;51.30;;;;;;5093552;28;19928;-57
2023/08/14 01:13:18;;;;;;;;;;;24.60;51.20;;;;;;5093588;28;19975;-58
2023/08/14 01:15:48;;;;;;;;;;;24.60;51.20;;;;;;5094016;28;20326;-57
2023/08/14 01:18:16;;;;;;;;;;;24.70;51.30;;;;;;5093194;28;20399;-58
2023/08/14 01:20:51;;;;;;;;;;;24.60;51.20;;;;;;5093686;28;19928;-58
2023/08/14 01:23:25;;;;;;;;;;;24.60;51.20;;;;;;5093826;28;19931;-57
2023/08/14 01:25:53;;;;;;;;;;;24.60;51.20;;;;;;5093472;28;19978;-58
2023/08/14 01:28:20;;;;;;;;;;;24.60;51.20;;;;;;5093813;28;19970;-56
2023/08/14 01:30:47;;;;;;;;;;;24.60;51.20;;;;;;5093468;28;20361;-57
2023/08/14 01:33:14;;;;;;;;;;;24.60;51.30;;;;;;5093369;28;19924;-59
2023/08/14 01:35:48;;;;;;;;;;;24.60;51.30;;;;;;5093872;28;19977;-59
2023/08/14 01:38:20;;;;;;;;;;;24.60;51.30;;;;;;5093655;28;20357;-57
2023/08/14 01:41:07;;;;;;;;;;;24.60;51.30;;;;;;5093736;28;19925;-56
2023/08/14 01:43:38;;;;;;;;;;;24.60;51.30;;;;;;5093629;28;20386;-57
2023/08/14 01:46:07;;;;;;;;;;;24.60;51.40;;;;;;5093349;28;20426;-57
2023/08/14 01:48:35;;;;;;;;;;;24.60;51.40;;;;;;5093461;28;19931;-57
2023/08/14 01:51:02;;;;;;;;;;;24.60;51.40;;;;;;5093140;28;19967;-57
2023/08/14 01:53:32;;;;;;;;;;;24.60;51.40;;;;;;5093306;28;19931;-57
2023/08/14 01:55:59;;;;;;;;;;;24.50;51.40;;;;;;5093582;28;20334;-57
2023/08/14 01:58:26;;;;;;;;;;;24.50;51.40;;;;;;5093397;28;20253;-57
2023/08/14 02:00:53;;;;;;;;;;;24.50;51.40;;;;;;5093063;28;19981;-57
2023/08/14 02:03:20;;;;;;;;;;;24.50;51.40;;;;;;5093426;28;19924;-58
2023/08/14 02:05:47;;;;;;;;;;;24.50;51.40;;;;;;5093095;28;19928;-58
2023/08/14 02:08:14;;;;;;;;;;;24.50;51.40;;;;;;5093146;28;19924;-58
2023/08/14 02:10:41;;;;;;;;;;;24.50;51.50;;;;;;5093222;28;20273;-57
2023/08/14 02:13:08;;;;;;;;;;;24.50;51.50;;;;;;5092703;28;19924;-57
2023/08/14 02:15:35;;;;;;;;;;;24.50;51.50;;;;;;5093386;28;20376;-56
2023/08/14 02:18:03;;;;;;;;;;;24.50;51.50;;;;;;5093289;28;20011;-57
2023/08/14 02:20:30;;;;;;;;;;;24.50;51.50;;;;;;5096503;28;19924;-58
2023/08/14 02:22:57;;;;;;;;;;;24.50;51.50;;;;;;5096427;28;19978;-57
2023/08/14 02:25:24;;;;;;;;;;;24.50;51.50;;;;;;5096106;28;20019;-59
2023/08/14 02:27:50;;;;;;;;;;;24.50;51.50;;;;;;5096860;28;19924;-57
2023/08/14 02:30:18;;;;;;;;;;;24.50;51.50;;;;;;5095050;28;19950;-57
2023/08/14 02:32:45;;;;;;;;;;;24.50;51.50;;;;;;5096200;28;19924;-58
2023/08/14 02:35:12;;;;;;;;;;;24.50;52.10;;;;;;5096465;28;20343;-58
2023/08/14 02:37:39;;;;;;;;;;;24.50;51.50;;;;;;5096516;28;20422;-57
2023/08/14 02:40:07;;;;;;;;;;;24.50;51.50;;;;;;5096253;28;19924;-56
2023/08/14 02:42:34;;;;;;;;;;;24.50;51.50;;;;;;5096457;28;19924;-57
2023/08/14 02:45:01;;;;;;;;;;;24.50;51.60;;;;;;5096491;28;19931;-57
2023/08/14 02:47:28;;;;;;;;;;;24.50;51.60;;;;;;5096245;28;19924;-58
2023/08/14 02:49:55;;;;;;;;;;;24.50;51.60;;;;;;5095771;28;19931;-58
2023/08/14 02:52:22;;;;;;;;;;;24.50;51.60;;;;;;5094420;28;19924;-57
2023/08/14 02:54:50;;;;;;;;;;;24.50;51.60;;;;;;5095058;28;20366;-58
2023/08/14 02:57:17;;;;;;;;;;;24.50;51.60;;;;;;5075220;28;19959;-58
2023/08/14 02:59:44;;;;;;;;;;;24.50;51.60;;;;;;5075916;28;20339;-57
2023/08/14 03:02:11;;;;;;;;;;;24.50;51.60;;;;;;5075582;28;19972;-58
2023/08/14 03:04:38;;;;;;;;;;;24.50;51.60;;;;;;5075564;28;19965;-58
2023/08/14 03:07:06;;;;;;;;;;;24.50;51.60;;;;;;5075387;28;19925;-58
2023/08/14 03:09:33;;;;;;;;;;;24.50;51.60;;;;;;5075471;28;19932;-56
2023/08/14 03:12:01;;;;;;;;;;;24.50;51.60;;;;;;5074493;28;21809;-58
2023/08/14 03:14:28;;;;;;;;;;;24.50;51.60;;;;;;5075632;28;19948;-57
2023/08/14 03:16:55;;;;;;;;;;;24.50;51.60;;;;;;5075415;28;19924;-57
2023/08/14 03:19:23;;;;;;;;;;;24.50;51.50;;;;;;5075561;28;19929;-58
2023/08/14 03:21:53;;;;;;;;;;;24.50;51.50;;;;;;5075378;28;20402;-58
2023/08/14 03:24:20;;;;;;;;;;;24.50;51.50;;;;;;5075425;28;19967;-58
2023/08/14 03:26:48;;;;;;;;;;;24.50;51.50;;;;;;5075103;28;19935;-57
2023/08/14 03:29:16;;;;;;;;;;;24.50;51.50;;;;;;5075286;28;19924;-57
2023/08/14 03:31:43;;;;;;;;;;;24.50;51.50;;;;;;5075110;28;19924;-55
2023/08/14 03:34:10;;;;;;;;;;;24.50;51.50;;;;;;5074881;28;20016;-56
2023/08/14 03:36:37;;;;;;;;;;;24.50;51.50;;;;;;5074886;28;19932;-57
2023/08/14 03:39:04;;;;;;;;;;;24.50;51.50;;;;;;5074705;28;19978;-58
2023/08/14 03:41:31;;;;;;;;;;;24.50;51.50;;;;;;5075031;28;19924;-58
2023/08/14 03:43:58;;;;;;;;;;;24.50;51.50;;;;;;5074977;28;19978;-58
2023/08/14 03:46:25;;;;;;;;;;;24.50;51.50;;;;;;5083232;28;20426;-58
2023/08/14 03:48:52;;;;;;;;;;;24.50;51.60;;;;;;5095229;28;20016;-56
2023/08/14 03:51:19;;;;;;;;;;;24.50;51.60;;;;;;5094749;28;19924;-57
2023/08/14 03:53:47;;;;;;;;;;;24.50;51.50;;;;;;5094982;28;20334;-57
2023/08/14 03:56:14;;;;;;;;;;;24.50;51.60;;;;;;5094760;28;19932;-56
2023/08/14 03:58:41;;;;;;;;;;;24.50;51.60;;;;;;5094683;28;20381;-58
2023/08/14 04:01:08;;;;;;;;;;;24.50;51.60;;;;;;5094889;28;19924;-58
2023/08/14 04:03:35;;;;;;;;;;;24.50;51.60;;;;;;5094819;28;20285;-57
2023/08/14 04:06:02;;;;;;;;;;;24.50;51.60;;;;;;5094725;28;19927;-57
2023/08/14 04:08:29;;;;;;;;;;;24.50;51.60;;;;;;5094394;28;20376;-57
2023/08/14 04:10:57;;;;;;;;;;;24.50;51.60;;;;;;5094371;28;19924;-56
2023/08/14 04:13:25;;;;;;;;;;;24.50;51.50;;;;;;5094080;28;20380;-57
2023/08/14 04:15:59;;;;;;;;;;;24.50;51.50;;;;;;5093214;28;19931;-57
2023/08/14 04:18:27;;;;;;;;;;;24.50;51.50;;;;;;5094292;28;19924;-57
2023/08/14 04:20:55;;;;;;;;;;;24.50;51.50;;;;;;5093933;28;19924;-58
2023/08/14 04:23:23;;;;;;;;;;;24.50;51.50;;;;;;5094099;28;19924;-57
2023/08/14 04:25:51;;;;;;;;;;;24.50;51.50;;;;;;5094311;28;19928;-57
2023/08/14 04:28:18;;;;;;;;;;;24.50;51.40;;;;;;5094431;28;20026;-58
2023/08/14 04:30:45;;;;;;;;;;;24.50;51.40;;;;;;5094277;28;19924;-58
2023/08/14 04:33:12;;;;;;;;;;;24.60;51.40;;;;;;5094147;28;20281;-57
2023/08/14 04:35:39;;;;;;;;;;;24.60;51.30;;;;;;5094113;28;20446;-56
2023/08/14 04:38:06;;;;;;;;;;;24.50;51.30;;;;;;5094030;28;20384;-57
2023/08/14 04:40:33;;;;;;;;;;;24.50;51.40;;;;;;5094233;28;19971;-57
2023/08/14 04:43:01;;;;;;;;;;;24.30;51.50;;;;;;5093459;28;19924;-58
2023/08/14 04:45:28;;;;;;;;;;;24.20;51.80;;;;;;5094320;28;20269;-56
2023/08/14 04:47:55;;;;;;;;;;;23.90;52.20;;;;;;5092932;28;19928;-56
2023/08/14 04:50:23;;;;;;;;;;;23.60;51.70;;;;;;5093925;28;20354;-57
2023/08/14 04:52:50;;;;;;;;;;;23.30;50.20;;;;;;5087661;28;19924;-57
2023/08/14 04:55:18;;;;;;;;;;;23.00;49.40;;;;;;5073644;28;19924;-57
2023/08/14 04:57:45;;;;;;;;;;;22.70;48.80;;;;;;5073731;28;19931;-58
2023/08/14 05:00:12;;;;;;;;;;;22.40;47.90;;;;;;5073364;28;20037;-57
2023/08/14 05:02:39;;;;;;;;;;;22.10;47.80;;;;;;5073504;28;19928;-58
2023/08/14 05:05:07;;;;;;;;;;;21.80;47.60;;;;;;5073380;28;19924;-56
2023/08/14 05:07:34;;;;;;;;;;;21.50;47.40;;;;;;5073419;28;20123;-58
2023/08/14 05:10:02;;;;;;;;;;;21.20;48.20;;;;;;5073102;28;20293;-58
2023/08/14 05:12:29;;;;;;;;;;;20.90;49.00;;;;;;5072997;28;19928;-58
2023/08/14 05:14:56;;;;;;;;;;;20.70;49.30;;;;;;5072980;28;19971;-58
2023/08/14 05:17:23;;;;;;;;;;;20.50;50.20;;;;;;5078093;28;20026;-55
2023/08/14 05:19:51;;;;;;;;;;;20.20;50.80;;;;;;5096453;28;19931;-59
2023/08/14 05:22:19;;;;;;;;;;;20.10;50.80;;;;;;5079334;28;19971;-56
2023/08/14 05:24:46;;;;;;;;;;;19.90;50.40;;;;;;5086083;28;19932;-56
2023/08/14 05:27:13;;;;;;;;;;;19.80;50.90;;;;;;5075818;28;19932;-57
2023/08/14 05:29:40;;;;;;;;;;;19.70;51.10;;;;;;5077260;28;20100;-58
2023/08/14 05:32:08;;;;;;;;;;;19.50;50.80;;;;;;5076470;28;19932;-58
2023/08/14 05:34:35;;;;;;;;;;;19.40;51.10;;;;;;5078361;28;20413;-58
2023/08/14 05:37:02;;;;;;;;;;;19.40;52.00;;;;;;5068586;28;19931;-58
2023/08/14 05:39:29;;;;;;;;;;;19.30;51.60;;;;;;5070209;28;19974;-58
2023/08/14 05:41:56;;;;;;;;;;;19.20;51.80;;;;;;5069885;28;19924;-58
2023/08/14 05:44:23;;;;;;;;;;;19.10;52.60;;;;;;5067832;28;20316;-58
2023/08/14 05:46:50;;;;;;;;;;;19.10;52.00;;;;;;5073354;28;20396;-58
2023/08/14 05:49:17;;;;;;;;;;;19.00;52.00;;;;;;5072242;28;19924;-58
2023/08/14 05:51:44;;;;;;;;;;;19.00;52.90;;;;;;5077011;28;20313;-59
2023/08/14 05:54:11;;;;;;;;;;;18.90;52.80;;;;;;5076387;28;19925;-59
2023/08/14 05:56:39;;;;;;;;;;;18.90;52.70;;;;;;5079950;28;19924;-59
2023/08/14 05:59:06;;;;;;;;;;;18.80;53.00;;;;;;5080758;28;19924;-59
2023/08/14 06:01:34;;;;;;;;;;;18.80;53.70;;;;;;5081120;28;19932;-59
2023/08/14 06:04:01;;;;;;;;;;;18.70;53.00;;;;;;5081030;28;19931;-60
2023/08/14 06:06:28;;;;;;;;;;;18.70;52.90;;;;;;5078311;28;19994;-59
2023/08/14 06:08:55;;;;;;;;;;;18.70;53.70;;;;;;5083674;28;19923;-59
2023/08/14 06:11:26;;;;;;;;;;;18.60;53.40;;;;;;5075843;28;19998;-57
2023/08/14 06:13:53;;;;;;;;;;;18.60;52.80;;;;;;5079217;28;19936;-58
2023/08/14 06:16:20;;;;;;;;;;;18.50;52.80;;;;;;5071104;28;20838;-60
2023/08/14 06:18:48;;;;;;;;;;;18.50;53.50;;;;;;5078539;28;19955;-62
2023/08/14 06:21:15;;;;;;;;;;;18.40;55.30;;;;;;5079852;28;19933;-59
2023/08/14 06:23:42;;;;;;;;;;;18.40;53.90;;;;;;5073785;28;19939;-59
2023/08/14 06:26:09;;;;;;;;;;;18.40;53.70;;;;;;5073175;28;20051;-58
2023/08/14 06:28:36;;;;;;;;;;;18.40;54.10;;;;;;5076947;28;19999;-57
2023/08/14 06:31:03;;;;;;;;;;;18.50;54.40;;;;;;5085898;28;20397;-59
2023/08/14 06:33:31;;;;;;;;;;;18.40;53.20;;;;;;5079310;28;19924;-59
2023/08/14 06:35:58;;;;;;;;;;;18.40;54.10;;;;;;5079434;28;20014;-59
2023/08/14 06:38:24;;;;;;;;;;;18.40;54.00;;;;;;5079224;28;19932;-59
2023/08/14 06:40:51;;;;;;;;;;;18.40;53.70;;;;;;5083387;28;19936;-59
2023/08/14 06:43:19;;;;;;;;;;;18.40;54.20;;;;;;5082400;28;19928;-58
2023/08/14 06:45:47;;;;;;;;;;;18.30;56.50;;;;;;5079805;28;19981;-59
2023/08/14 06:48:14;;;;;;;;;;;18.30;53.80;;;;;;5074108;28;19932;-59
2023/08/14 06:50:41;;;;;;;;;;;18.30;57.20;;;;;;5082228;28;20011;-56
2023/08/14 06:53:08;;;;;;;;;;;18.20;58.10;;;;;;5084156;28;20295;-59
2023/08/14 06:55:36;;;;;;;;;;;18.20;57.90;;;;;;5081012;28;19928;-59
2023/08/14 06:58:03;;;;;;;;;;;18.20;56.00;;;;;;5076644;28;19932;-59
2023/08/14 07:00:30;;;;;;;;;;;18.20;56.10;;;;;;5076739;28;19989;-60
2023/08/14 07:02:57;;;;;;;;;;;18.20;56.80;;;;;;5075093;28;19928;-59
2023/08/14 07:05:24;;;;;;;;;;;18.30;55.80;;;;;;5079809;28;19932;-59
2023/08/14 07:07:55;;;;;;;;;;;18.30;56.10;;;;;;5072837;28;19933;-59
2023/08/14 07:10:21;;;;;;;;;;;18.30;56.30;;;;;;5071341;28;19932;-60
2023/08/14 07:12:48;;;;;;;;;;;18.30;55.20;;;;;;5070511;28;20445;-59
2023/08/14 07:15:16;;;;;;;;;;;18.30;55.20;;;;;;5070467;28;19928;-59
2023/08/14 07:17:42;;;;;;;;;;;18.40;55.50;;;;;;5073198;28;19938;-58
2023/08/14 07:20:11;;;;;;;;;;;18.40;55.20;;;;;;5079015;28;19939;-59
2023/08/14 07:22:38;;;;;;;;;;;18.40;57.90;;;;;;5083999;28;20997;-59
2023/08/14 07:25:06;;;;;;;;;;;18.40;56.00;;;;;;5081288;28;19932;-61
2023/08/14 07:27:33;;;;;;;;;;;18.40;55.50;;;;;;5078140;28;20281;-60
2023/08/14 07:29:59;;;;;;;;;;;18.40;57.00;;;;;;5075198;28;20436;-60
2023/08/14 07:32:28;;;;;;;;;;;18.40;56.90;;;;;;5072522;28;19932;-59
2023/08/14 07:34:55;;;;;;;;;;;18.40;57.00;;;;;;5075534;28;19928;-59
2023/08/14 07:37:22;;;;;;;;;;;18.50;57.70;;;;;;5080866;28;19932;-59
2023/08/14 07:39:49;;;;;;;;;;;18.50;59.20;;;;;;5086183;28;20015;-59
2023/08/14 07:42:16;;;;;;;;;;;18.40;58.30;;;;;;5076648;28;20405;-59
2023/08/14 07:44:44;;;;;;;;;;;18.40;60.20;;;;;;5074972;28;20431;-59
2023/08/14 07:47:12;;;;;;;;;;;18.40;60.00;;;;;;5074750;28;20098;-59
2023/08/14 07:49:39;;;;;;;;;;;18.40;60.60;;;;;;5074655;28;19932;-59
2023/08/14 07:52:06;;;;;;;;;;;18.40;58.90;;;;;;5071625;28;19959;-60
2023/08/14 07:54:33;;;;;;;;;;;18.50;60.80;;;;;;5080695;28;19925;-63
2023/08/14 07:57:00;;;;;;;;;;;18.40;61.50;;;;;;5074948;28;19933;-60
2023/08/14 07:59:27;;;;;;;;;;;18.40;61.80;;;;;;5076225;28;19936;-60
2023/08/14 08:01:54;;;;;;;;;;;18.50;60.20;;;;;;5071690;28;19925;-59
2023/08/14 08:04:21;;;;;;;;;;;18.50;60.90;;;;;;5072277;28;19939;-59
2023/08/14 08:06:52;;;;;;;;;;;18.60;60.80;;;;;;5077586;28;19932;-60
2023/08/14 08:09:19;;;;;;;;;;;18.60;61.30;;;;;;5074875;28;19975;-59
2023/08/14 08:11:46;;;;;;;;;;;18.70;61.40;;;;;;5075082;28;20403;-59
2023/08/14 08:14:16;;;;;;;;;;;18.70;60.50;;;;;;5071830;28;19932;-60
2023/08/14 08:16:44;;;;;;;;;;;18.70;61.90;;;;;;5081475;28;19973;-59
2023/08/14 08:19:11;;;;;;;;;;;18.70;61.00;;;;;;5073878;28;19924;-59
2023/08/14 08:21:39;;;;;;;;;;;18.80;62.20;;;;;;5076062;28;19981;-59
2023/08/14 08:24:06;;;;;;;;;;;18.80;62.40;;;;;;5076979;28;19985;-59
2023/08/14 08:26:34;;;;;;;;;;;18.80;61.50;;;;;;5074554;28;20376;-57
2023/08/14 08:29:02;;;;;;;;;;;18.80;62.00;;;;;;5082579;28;19924;-59
2023/08/14 08:31:30;;;;;;;;;;;18.80;62.10;;;;;;5079292;28;19924;-60
2023/08/14 08:33:57;;;;;;;;;;;18.90;60.60;;;;;;5074257;28;20622;-60
2023/08/14 08:36:24;;;;;;;;;;;18.90;60.40;;;;;;5080687;28;19935;-59
2023/08/14 08:38:51;;;;;;;;;;;19.00;61.50;;;;;;5078240;28;19929;-59
2023/08/14 08:41:25;;;;;;;;;;;19.00;61.40;;;;;;5079145;28;19936;-59
2023/08/14 08:43:58;;;;;;;;;;;19.00;62.10;;;;;;5078041;28;20016;-59
2023/08/14 08:46:27;;;;;;;;;;;19.10;61.70;;;;;;5077329;28;19927;-59
2023/08/14 08:48:54;;;;;;;;;;;19.10;61.90;;;;;;5075670;28;19927;-59
2023/08/14 08:51:21;;;;;;;;;;;19.20;61.90;;;;;;5075357;28;20730;-59
2023/08/14 08:53:48;;;;;;;;;;;19.20;62.10;;;;;;5075873;28;19924;-59
2023/08/14 08:56:16;;;;;;;;;;;19.20;62.60;;;;;;5077015;28;20283;-61
2023/08/14 08:58:43;;;;;;;;;;;19.30;62.40;;;;;;5076792;28;19943;-59
2023/08/14 09:01:10;;;;;;;;;;;19.30;62.70;;;;;;5077372;28;20407;-60
2023/08/14 09:03:38;;;;;;;;;;;19.30;62.50;;;;;;5080075;28;19932;-59
2023/08/14 09:06:05;;;;;;;;;;;19.40;62.40;;;;;;5073372;28;20396;-59
2023/08/14 09:08:32;;;;;;;;;;;19.50;62.50;;;;;;5077625;28;19924;-60
2023/08/14 09:10:59;;;;;;;;;;;19.50;62.40;;;;;;5076623;28;19924;-58
2023/08/14 09:13:26;;;;;;;;;;;19.60;62.00;;;;;;5075251;28;19961;-59
2023/08/14 09:16:00;;;;;;;;;;;19.60;62.60;;;;;;5076360;28;19931;-58
2023/08/14 09:18:27;;;;;;;;;;;19.70;62.30;;;;;;5081265;28;19925;-58
2023/08/14 09:20:54;;;;;;;;;;;19.70;62.10;;;;;;5079139;28;19951;-59
2023/08/14 09:23:21;;;;;;;;;;;19.80;62.20;;;;;;5074909;28;19934;-59
2023/08/14 09:25:50;;;;;;;;;;;19.90;61.80;;;;;;5080236;28;19928;-59
2023/08/14 09:28:18;;;;;;;;;;;19.90;61.70;;;;;;5077532;28;19936;-58
2023/08/14 09:30:45;;;;;;;;;;;20.00;62.00;;;;;;5084852;28;19932;-59
2023/08/14 09:33:12;;;;;;;;;;;20.10;61.60;;;;;;5079007;28;19924;-58
2023/08/14 09:35:40;;;;;;;;;;;20.10;61.20;;;;;;5083304;28;20266;-59
2023/08/14 09:38:07;;;;;;;;;;;20.20;60.80;;;;;;5082962;28;20011;-59
2023/08/14 09:40:35;;;;;;;;;;;20.20;61.10;;;;;;5082324;28;19924;-59
2023/08/14 09:43:02;;;;;;;;;;;20.30;59.60;;;;;;5077547;28;20273;-59
2023/08/14 09:45:34;;;;;;;;;;;20.30;59.70;;;;;;5081584;28;20266;-59
2023/08/14 09:48:03;;;;;;;;;;;20.40;59.40;;;;;;5080481;28;19935;-59
2023/08/14 09:50:31;;;;;;;;;;;20.40;60.10;;;;;;5080962;28;19924;-59
2023/08/14 09:52:59;;;;;;;;;;;20.40;59.40;;;;;;5078999;28;20440;-59
2023/08/14 09:55:30;;;;;;;;;;;20.40;59.50;;;;;;5082156;28;20395;-58
2023/08/14 09:57:57;;;;;;;;;;;20.40;58.70;;;;;;5076912;28;19939;-59
2023/08/14 10:00:29;;;;;;;;;;;20.40;59.00;;;;;;5083327;28;20464;-59
2023/08/14 10:02:57;;;;;;;;;;;20.40;57.80;;;;;;5082608;28;19928;-59
2023/08/14 10:05:27;;;;;;;;;;;20.50;57.50;;;;;;5080934;28;19939;-59
2023/08/14 10:07:54;;;;;;;;;;;20.40;58.00;;;;;;5080206;28;19924;-59
2023/08/14 10:10:22;;;;;;;;;;;20.40;57.30;;;;;;5085325;28;19961;-59
2023/08/14 10:12:52;;;;;;;;;;;20.40;57.30;;;;;;5074776;28;19937;-58
2023/08/14 10:15:23;;;;;;;;;;;20.40;57.70;;;;;;5083414;28;19931;-58
2023/08/14 10:17:51;;;;;;;;;;;20.40;57.40;;;;;;5078427;28;19982;-58
2023/08/14 10:20:21;;;;;;;;;;;20.40;57.90;;;;;;5080241;28;19924;-58
2023/08/14 10:22:49;;;;;;;;;;;20.30;57.60;;;;;;5083582;28;19924;-59
2023/08/14 10:25:17;;;;;;;;;;;20.30;57.10;;;;;;5085644;28;19928;-58
2023/08/14 10:27:44;;;;;;;;;;;20.30;57.10;;;;;;5073038;28;19929;-58
2023/08/14 10:30:11;;;;;;;;;;;20.20;57.30;;;;;;5081922;28;20365;-58
2023/08/14 10:32:39;;;;;;;;;;;20.20;57.00;;;;;;5081016;28;19986;-57
2023/08/14 10:35:07;;;;;;;;;;;20.20;57.50;;;;;;5077347;28;19929;-58
2023/08/14 10:37:41;;;;;;;;;;;20.20;58.00;;;;;;5079862;28;19924;-58
2023/08/14 10:40:19;;;;;;;;;;;20.20;58.20;;;;;;5078532;28;19924;-58
2023/08/14 10:42:47;;;;;;;;;;;20.20;57.50;;;;;;5079910;28;19928;-59
2023/08/14 10:45:16;;;;;;;;;;;20.20;57.80;;;;;;5075569;28;19924;-58
2023/08/14 10:47:44;;;;;;;;;;;20.20;57.50;;;;;;5080600;28;19932;-58
2023/08/14 10:50:12;;;;;;;;;;;20.20;58.50;;;;;;5081720;28;19924;-58
2023/08/14 10:52:41;;;;;;;;;;;20.20;58.60;;;;;;5085984;28;20372;-58
2023/08/14 10:55:14;;;;;;;;;;;20.20;57.30;;;;;;5081909;28;19924;-59
2023/08/14 10:57:41;;;;;;;;;;;20.20;58.50;;;;;;5073500;28;19925;-58
2023/08/14 11:00:20;;;;;;;;;;;20.20;57.30;;;;;;5075675;28;19924;-58
2023/08/14 11:03:06;;;;;;;;;;;20.20;58.00;;;;;;5074547;28;19934;-56
2023/08/14 11:05:38;;;;;;;;;;;20.20;58.10;;;;;;5074548;28;20458;-58
2023/08/14 11:08:06;;;;;;;;;;;20.20;58.30;;;;;;5078451;28;19932;-57
2023/08/14 11:10:34;;;;;;;;;;;20.10;57.10;;;;;;5078281;28;19999;-59
2023/08/14 11:13:02;;;;;;;;;;;20.20;57.70;;;;;;5080403;28;19928;-58
2023/08/14 11:15:30;;;;;;;;;;;20.20;57.10;;;;;;5082204;28;19925;-56
2023/08/14 11:17:58;;;;;;;;;;;20.20;56.90;;;;;;5077042;28;20007;-59
2023/08/14 11:20:26;;;;;;;;;;;20.20;57.20;;;;;;5077354;28;20294;-59
2023/08/14 11:22:54;;;;;;;;;;;20.20;57.80;;;;;;5078325;28;20019;-59
2023/08/14 11:25:21;;;;;;;;;;;20.20;57.30;;;;;;5076238;28;20330;-56
2023/08/14 11:27:50;;;;;;;;;;;20.20;57.30;;;;;;5076529;28;19931;-57
2023/08/14 11:30:19;;;;;;;;;;;20.30;57.10;;;;;;5075559;28;19924;-55
2023/08/14 11:32:52;;;;;;;;;;;20.20;57.00;;;;;;5074398;28;21529;-57
2023/08/14 11:35:19;;;;;;;;;;;20.30;57.00;;;;;;5073945;28;19938;-57
2023/08/14 11:37:51;;;;;;;;;;;20.30;57.40;;;;;;5078474;28;19960;-58
2023/08/14 11:40:19;;;;;;;;;;;20.30;57.60;;;;;;5071302;28;19929;-57
2023/08/14 11:42:46;;;;;;;;;;;20.30;57.50;;;;;;5083935;28;19932;-57
2023/08/14 11:45:13;;;;;;;;;;;20.40;57.60;;;;;;5083627;28;19931;-55
2023/08/14 11:47:47;;;;;;;;;;;20.30;57.50;;;;;;5079394;28;19932;-57
2023/08/14 11:50:14;;;;;;;;;;;20.40;57.60;;;;;;5076426;28;20023;-59
2023/08/14 11:52:44;;;;;;;;;;;20.40;57.10;;;;;;5078185;28;19939;-58
2023/08/14 11:55:13;;;;;;;;;;;20.40;57.20;;;;;;5075792;28;19936;-58
2023/08/14 11:57:42;;;;;;;;;;;20.40;57.20;;;;;;5081252;28;19931;-59
2023/08/14 12:00:13;;;;;;;;;;;20.40;57.50;;;;;;5075364;28;20379;-58
2023/08/14 12:02:43;;;;;;;;;;;20.40;57.00;;;;;;5078375;28;19924;-58
2023/08/14 12:05:10;;;;;;;;;;;20.40;57.30;;;;;;5073588;28;19924;-57
2023/08/14 12:07:40;;;;;;;;;;;20.50;57.10;;;;;;5078701;28;19973;-58
2023/08/14 12:10:08;;;;;;;;;;;20.50;57.60;;;;;;5076132;28;20019;-58
2023/08/14 12:12:35;;;;;;;;;;;20.50;57.00;;;;;;5078450;28;19931;-59
2023/08/14 12:15:10;;;;;;;;;;;20.50;56.80;;;;;;5075621;28;19970;-58
2023/08/14 12:17:42;;;;;;;;;;;20.50;58.30;;;;;;5077034;28;19934;-58
2023/08/14 12:20:10;;;;;;;;;;;20.50;56.70;;;;;;5075652;28;19971;-59
2023/08/14 12:22:37;;;;;;;;;;;20.50;56.70;;;;;;5082234;28;19928;-57
2023/08/14 12:25:07;;;;;;;;;;;20.50;56.90;;;;;;5082426;28;19979;-59
2023/08/14 12:27:35;;;;;;;;;;;20.60;57.30;;;;;;5075897;28;20012;-59
2023/08/14 12:30:02;;;;;;;;;;;20.60;57.50;;;;;;5080885;28;20296;-59
2023/08/14 12:32:29;;;;;;;;;;;20.60;57.30;;;;;;5078219;28;20299;-59
2023/08/14 12:34:56;;;;;;;;;;;20.60;57.50;;;;;;5077766;28;20583;-60
2023/08/14 12:37:23;;;;;;;;;;;20.60;57.40;;;;;;5077215;28;20039;-60
2023/08/14 12:39:55;;;;;;;;;;;20.70;57.30;;;;;;5081487;28;19947;-59
2023/08/14 12:42:23;;;;;;;;;;;20.70;57.60;;;;;;5076621;28;19978;-59
2023/08/14 12:44:50;;;;;;;;;;;20.70;57.50;;;;;;5081737;28;19935;-59
2023/08/14 12:47:18;;;;;;;;;;;20.80;57.70;;;;;;5081002;28;19924;-59
2023/08/14 12:49:45;;;;;;;;;;;20.80;57.70;;;;;;5080570;28;20296;-64
2023/08/14 12:52:12;;;;;;;;;;;20.80;57.90;;;;;;5074303;28;19955;-60
2023/08/14 12:54:44;;;;;;;;;;;20.90;58.10;;;;;;5079372;28;19931;-59
2023/08/14 12:57:13;;;;;;;;;;;20.90;58.10;;;;;;5078008;28;20392;-59
2023/08/14 12:59:40;;;;;;;;;;;20.90;58.20;;;;;;5076804;28;19925;-58
2023/08/14 13:02:07;;;;;;;;;;;21.00;58.20;;;;;;5074676;28;19939;-60
2023/08/14 13:04:34;;;;;;;;;;;21.00;58.20;;;;;;5072522;28;19939;-60
2023/08/14 13:07:02;;;;;;;;;;;21.00;58.20;;;;;;5081827;28;19969;-59
2023/08/14 13:09:29;;;;;;;;;;;21.00;58.20;;;;;;5079322;28;19928;-57
2023/08/14 13:11:56;;;;;;;;;;;21.00;58.10;;;;;;5081483;28;20348;-58
2023/08/14 13:14:24;;;;;;;;;;;21.10;57.80;;;;;;5070809;28;19932;-58
2023/08/14 13:16:51;;;;;;;;;;;21.10;57.80;;;;;;5081297;28;19928;-58
2023/08/14 13:19:18;;;;;;;;;;;21.10;57.70;;;;;;5083056;28;19928;-59
2023/08/14 13:21:45;;;;;;;;;;;21.10;57.60;;;;;;5077272;28;19932;-58
2023/08/14 13:24:12;;;;;;;;;;;21.20;57.50;;;;;;5075636;28;20429;-58
2023/08/14 13:26:40;;;;;;;;;;;21.10;57.40;;;;;;5075737;28;19928;-57
2023/08/14 13:29:08;;;;;;;;;;;21.20;57.30;;;;;;5075078;28;20384;-59
2023/08/14 13:31:35;;;;;;;;;;;21.20;57.40;;;;;;5069412;28;20439;-56
2023/08/14 13:34:02;;;;;;;;;;;21.20;57.30;;;;;;5074841;28;19951;-54
2023/08/14 13:36:29;;;;;;;;;;;21.20;57.20;;;;;;5076773;28;19928;-56
2023/08/14 13:38:57;;;;;;;;;;;21.20;57.10;;;;;;5082517;28;19931;-59
2023/08/14 13:41:24;;;;;;;;;;;21.20;57.20;;;;;;5076715;28;19966;-59
2023/08/14 13:43:51;;;;;;;;;;;21.20;57.10;;;;;;5077319;28;19992;-60
2023/08/14 13:46:18;;;;;;;;;;;21.20;57.70;;;;;;5077716;28;19967;-60
2023/08/14 13:48:45;;;;;;;;;;;21.20;56.80;;;;;;5075862;28;19939;-60
2023/08/14 13:51:12;;;;;;;;;;;21.20;56.90;;;;;;5079588;28;19975;-62
2023/08/14 13:53:39;;;;;;;;;;;21.10;56.50;;;;;;5073430;28;19998;-60
2023/08/14 13:56:06;;;;;;;;;;;21.10;56.50;;;;;;5070225;28;20011;-59
2023/08/14 13:58:33;;;;;;;;;;;21.10;56.70;;;;;;5070813;28;19971;-59
2023/08/14 14:01:00;;;;;;;;;;;21.10;57.00;;;;;;5077287;28;19997;-60
2023/08/14 14:03:29;;;;;;;;;;;21.10;56.70;;;;;;5071530;28;19929;-60
2023/08/14 14:05:57;;;;;;;;;;;21.10;63.80;;;;;;5076586;28;19972;-59
2023/08/14 14:08:24;;;;;;;;;;;21.30;70.90;;;;;;5076508;28;19932;-60
2023/08/14 14:10:51;;;;;;;;;;;21.50;73.30;;;;;;5073386;28;19981;-59
2023/08/14 14:13:18;;;;;;;;;;;21.80;73.90;;;;;;5076014;28;19958;-61
2023/08/14 14:15:49;;;;;;;;;;;22.10;74.00;;;;;;5073601;28;20384;-61
2023/08/14 14:18:15;;;;;;;;;;;22.30;73.90;;;;;;5075810;28;19924;-61
2023/08/14 14:20:42;;;;;;;;;;;22.60;73.50;;;;;;5078347;28;19932;-61